Latest Weather Observations for Cobar Airport

IDN60801

Issued at 10:02 am EST Sunday 1 May 2016 (issued every 30 minutes, with the page automatically refreshed every 10 minutes)

About weather observations | Map of weather stations | Latest weather observations for NSW | Other Formats
Station Details ID: 048237 Name: COBAR AIRPORT AWS Lat: -31.54 Lon: 145.80 Height: 218.0 m
Data from the previous 72 hours. | See also: Recent months at Cobar Airport
Date/Time
EST
Temp
°C
App
Temp
°C
Dew
Point
Rel
Hum
%
Delta-T
°C
Wind Press
QNH
hPa
Press
MSL
hPa
Rain
since 9 am
mm
Dir
 
Spd
km/h
Gust
km/h
Spd
kts
Gust
kts
01/09:30am 21.2 19.6 17.4 79 2.4 WNW 22 28 12 15 1017.3 1016.8 0.0
01/09:00am 20.4 19.9 17.8 85 1.6 NW 17 20 9 11 1017.0 1016.5 0.0
01/08:30am 19.5 20.0 18.3 93 0.8 NNW 13 20 7 11 1016.7 1016.2 0.0
01/08:00am 18.4 18.8 18.2 99 0.1 NNW 13 20 7 11 1016.4 1015.8 0.0
01/07:30am 17.7 17.8 17.5 99 0.1 N 13 19 7 10 1016.0 1015.4 0.0
01/07:00am 17.7 17.8 17.5 99 0.1 N 13 19 7 10 1015.7 1015.1 0.0
01/06:30am 17.7 18.2 17.5 99 0.1 N 11 17 6 9 1015.3 1014.7 0.0
01/06:00am 17.8 18.0 17.6 99 0.1 NNE 13 17 7 9 1014.8 1014.2 0.0
01/05:30am 18.1 18.8 17.9 99 0.1 N 11 17 6 9 1014.8 1014.2 0.0
01/05:00am 18.2 18.2 18.0 99 0.1 NNE 15 19 8 10 1014.7 1014.1 0.0
01/04:30am 18.3 17.9 18.1 99 0.1 NNE 17 20 9 11 1014.4 1013.9 0.0
01/04:00am 18.6 19.1 18.3 98 0.2 NNE 13 17 7 9 1014.5 1014.0 0.0
01/03:30am 19.0 19.2 18.5 97 0.3 N 15 19 8 10 1014.9 1014.3 0.0
01/03:09am 19.3 19.7 19.1 99 0.1 NNW 15 22 8 12 1016.3 1015.7 0.0
01/03:00am 19.2 20.0 19.0 99 0.1 NNW 13 19 7 10 1016.6 1016.1 0.0
01/02:47am 19.3 18.9 19.0 98 0.2 NW 19 28 10 15 1017.1 1016.6 0.0
01/02:30am 19.8 19.8 19.0 95 0.5 NNW 17 24 9 13 1016.5 1016.0 0.0
01/02:00am 19.7 18.8 19.0 96 0.4 N 22 32 12 17 1016.0 1015.4 0.0
01/01:30am 19.7 20.2 19.2 97 0.3 N 15 20 8 11 1015.7 1015.1 0.0
01/01:00am 19.8 19.8 19.0 95 0.5 N 17 20 9 11 1015.8 1015.2 0.0
01/12:30am 20.5 19.4 18.6 89 1.2 N 22 32 12 17 1015.5 1014.9 0.0
01/12:00am 21.1 19.7 17.9 82 2.0 N 22 32 12 17 1015.7 1015.1 0.0
 
Date/Time
EST
Temp
°C
App
Temp
°C
Dew
Point
Rel
Hum
%
Delta-T
°C
Wind Press
QNH
hPa
Press
MSL
hPa
Rain
since 9 am
mm
Dir
 
Spd
km/h
Gust
km/h
Spd
kts
Gust
kts
30/11:30pm 21.7 22.3 17.7 78 2.5 WNW 11 17 6 9 1015.8 1015.2 0.0
30/11:00pm 22.1 20.9 17.5 75 2.9 NNE 20 28 11 15 1014.9 1014.3 0.0
30/10:30pm 22.5 20.9 17.4 73 3.2 NNE 22 30 12 16 1014.8 1014.2 0.0
30/10:00pm 21.9 21.4 17.9 78 2.5 NNE 17 22 9 12 1015.0 1014.4 0.0
30/09:30pm 21.8 22.3 18.4 81 2.1 NNE 13 19 7 10 1015.4 1014.8 0.0
30/09:00pm 21.8 22.5 18.8 83 1.9 NNE 13 17 7 9 1015.5 1014.9 0.0
30/08:30pm 22.0 22.6 18.6 81 2.2 NNE 13 17 7 9 1015.5 1014.9 0.0
30/08:00pm 22.1 23.4 18.5 80 2.3 NNE 9 13 5 7 1015.7 1015.1 0.0
30/07:30pm 22.2 23.2 18.6 80 2.3 NNE 11 13 6 7 1015.6 1015.0 0.0
30/07:00pm 22.3 23.6 18.5 79 2.4 NE 9 9 5 5 1015.6 1015.0 0.0
30/06:30pm 23.0 24.5 18.1 74 3.1 NNE 7 9 4 5 1015.5 1014.9 0.0
30/06:00pm 23.7 24.7 17.7 69 3.8 NNE 9 9 5 5 1015.3 1014.7 0.0
30/05:30pm 24.5 24.5 17.2 63 4.6 NNE 13 19 7 10 1015.1 1014.5 0.0
30/05:00pm 25.0 24.5 17.0 61 5.0 NNE 15 20 8 11 1015.2 1014.6 0.0
30/04:30pm 25.3 24.8 17.0 60 5.2 NE 15 22 8 12 1015.3 1014.7 0.0
30/04:00pm 25.3 25.3 17.2 61 5.1 NE 13 20 7 11 1015.4 1014.8 0.0
30/03:30pm 25.2 26.0 17.4 62 4.9 NNE 9 17 5 9 1015.5 1014.9 0.0
30/03:00pm 25.3 26.0 18.0 64 4.6 N 11 17 6 9 1015.5 1014.9 0.0
30/02:30pm 24.9 25.4 16.6 60 5.2 NNW 9 15 5 8 1015.8 1015.2 0.0
30/02:00pm 25.5 26.7 16.9 59 5.4 N 6 13 3 7 1015.9 1015.3 0.0
30/01:30pm 24.5 24.8 17.0 63 4.7 N 11 15 6 8 1016.2 1015.6 0.0
30/01:00pm 24.8 25.1 17.8 65 4.4 N 13 19 7 10 1016.5 1016.0 0.0
30/12:30pm 24.2 24.6 17.2 65 4.4 NNW 11 17 6 9 1016.9 1016.4 0.0
30/12:00pm 23.8 23.4 17.1 66 4.2 N 15 22 8 12 1017.5 1017.0 0.0
30/11:30am 23.2 22.4 17.0 68 3.8 NNE 17 24 9 13 1017.8 1017.3 0.0
30/11:00am 23.0 22.5 17.7 72 3.3 NNE 17 22 9 12 1018.0 1017.5 0.0
30/10:30am 22.5 22.1 18.1 76 2.8 NNE 17 22 9 12 1018.7 1018.2 0.0
30/10:00am 21.4 21.0 17.2 77 2.6 NNE 15 22 8 12 1018.8 1018.3 0.0
30/09:30am 20.8 20.1 17.4 81 2.1 NE 17 22 9 12 1018.7 1018.2 0.0
30/09:00am 19.9 20.1 17.7 87 1.4 NE 13 17 7 9 1018.8 1018.3 0.0
30/08:30am 18.8 18.6 17.5 92 0.8 NE 15 19 8 10 1019.0 1018.5 0.0
30/08:00am 17.9 18.7 17.4 97 0.3 NNE 9 11 5 6 1018.9 1018.4 0.0
30/07:30am 17.0 17.6 16.8 99 0.1 NE 9 15 5 8 1018.5 1018.0 0.0
30/07:00am 17.0 16.8 16.8 99 0.1 NE 13 17 7 9 1018.2 1017.7 0.0
30/06:30am 16.9 16.3 16.7 99 0.1 NE 15 20 8 11 1017.9 1017.4 0.0
30/06:00am 16.9 15.6 16.7 99 0.1 NE 19 24 10 13 1017.6 1017.1 0.0
30/05:30am 16.8 15.3 16.8 100 0.0 NE 20 28 11 15 1017.4 1016.9 0.0
30/05:00am 16.7 15.2 16.7 100 0.0 NE 20 28 11 15 1017.4 1016.9 0.0
30/04:30am 16.7 16.1 16.7 100 0.0 NE 15 20 8 11 1018.3 1017.8 0.0
30/04:00am 16.7 16.5 16.7 100 0.0 NE 13 17 7 9 1018.3 1017.8 0.0
30/03:30am 16.6 16.7 16.6 100 0.0 NE 11 15 6 8 1018.1 1017.6 0.0
30/03:20am 16.6 16.7 16.4 99 0.1 NE 11 15 6 8 1018.2 1017.7 0.0
30/03:00am 16.7 16.0 16.5 99 0.1 NNW 15 19 8 10 1018.8 1018.3 0.0
30/02:37am 16.8 16.9 16.6 99 0.1 ENE 11 20 6 11 1018.1 1017.6 0.0
30/02:30am 16.8 16.2 16.6 99 0.1 ENE 15 24 8 13 1017.6 1017.1 0.0
30/02:00am 16.9 15.9 16.7 99 0.1 ENE 17 26 9 14 1017.7 1017.2 0.0
30/01:30am 16.8 16.2 16.6 99 0.1 ENE 15 20 8 11 1017.8 1017.3 0.0
30/01:00am 17.1 16.2 16.9 99 0.1 NE 17 22 9 12 1018.3 1017.8 0.0
30/12:30am 17.4 17.0 17.2 99 0.1 ENE 15 19 8 10 1018.7 1018.2 0.0
30/12:00am 17.2 17.1 17.0 99 0.1 E 13 19 7 10 1018.8 1018.3 0.0
 
Date/Time
EST
Temp
°C
App
Temp
°C
Dew
Point
Rel
Hum
%
Delta-T
°C
Wind Press
QNH
hPa
Press
MSL
hPa
Rain
since 9 am
mm
Dir
 
Spd
km/h
Gust
km/h
Spd
kts
Gust
kts
29/11:40pm 17.3 18.0 17.1 99 0.1 ENE 9 15 5 8 1019.3 1018.8 0.0
29/11:30pm 17.3 17.6 17.1 99 0.1 ENE 11 17 6 9 1019.2 1018.7 0.0
29/11:28pm 17.3 18.0 17.1 99 0.1 ENE 9 15 5 8 1019.2 1018.7 0.0
29/11:10pm 17.4 19.5 17.2 99 0.1 ESE 2 7 1 4 1019.7 1019.1 0.0
29/11:00pm 17.6 19.4 17.4 99 0.1 ESE 4 7 2 4 1019.6 1019.0 0.0
29/10:57pm 17.6 19.0 17.4 99 0.1 ESE 6 9 3 5 1019.7 1019.1 0.0
29/10:30pm 17.7 18.6 17.5 99 0.1 SSE 9 13 5 7 1019.4 1018.9 0.0
29/10:00pm 17.6 18.4 17.4 99 0.1 SSE 9 13 5 7 1019.7 1019.1 0.0
29/09:30pm 17.6 18.4 17.4 99 0.1 SE 9 15 5 8 1019.7 1019.1 0.0
29/09:00pm 17.7 18.7 17.7 100 0.0 E 9 13 5 7 1019.4 1018.9 0.0
29/08:30pm 17.7 18.3 17.7 100 0.0 SE 11 17 6 9 1019.2 1018.7 0.0
29/08:02pm 17.8 17.3 17.8 100 0.0 SSE 17 20 9 11 1019.1 1018.6 0.0
29/08:00pm 17.9 17.4 17.9 100 0.0 SSE 17 20 9 11 1019.1 1018.6 0.0
29/07:45pm 17.9 18.2 17.9 100 0.0 SSE 13 19 7 10 1019.7 1019.1 0.0
29/07:32pm 17.9 18.2 17.9 100 0.0 SSE 13 19 7 10 1019.7 1019.1 0.0
29/07:30pm 17.9 18.2 17.9 100 0.0 SSE 13 20 7 11 1019.6 1019.0 0.0
29/07:06pm 18.0 18.3 18.0 100 0.0 S 13 20 7 11 1019.8 1019.2 0.0
29/07:00pm 18.0 18.0 18.0 100 0.0 S 15 20 8 11 1019.4 1018.9 0.0
29/06:30pm 18.1 19.2 17.9 99 0.1 S 9 15 5 8 1019.1 1018.6 0.0
29/06:00pm 18.1 17.6 17.9 99 0.1 SSE 17 22 9 12 1017.7 1017.2 0.0
29/05:30pm 18.1 17.3 18.1 100 0.0 S 19 26 10 14 1018.0 1017.5 0.0
29/05:00pm 18.1 17.7 18.1 100 0.0 SSW 17 24 9 13 1018.1 1017.6 0.0
29/04:30pm 18.1 16.3 17.9 99 0.1 S 24 33 13 18 1017.5 1017.0 0.0
29/04:25pm 18.2 16.1 18.0 99 0.1 SSW 26 33 14 18 1017.8 1017.3 0.0
29/04:07pm 18.2 14.9 18.0 99 0.1 SW 32 46 17 25 1018.1 1017.6 0.0
29/04:05pm 18.2 14.9 18.0 99 0.1 SW 32 46 17 25 1018.1 1017.6 0.0
29/04:00pm 18.5 15.0 18.0 97 0.3 SW 33 50 18 27 1017.8 1017.3 0.0
29/03:52pm 19.1 13.1 16.9 87 1.3 W 44 76 24 41 1017.2 1016.7 0.0
29/03:51pm 18.6 12.4 16.0 85 1.6 WNW 43 76 23 41 1017.5 1017.0 0.0
29/03:46pm 20.5 15.7 13.9 66 3.8 NNW 32 76 17 41 1016.8 1016.3 0.0
29/03:44pm 26.1 22.5 14.2 48 7.1 N 26 67 14 36 1016.1 1015.5 0.0
29/03:30pm 27.6 24.7 12.8 40 8.7 NNE 20 28 11 15 1015.3 1014.7 0.0
29/03:00pm 27.5 24.0 12.3 39 8.9 NNE 22 28 12 15 1015.2 1014.6 0.0
29/02:30pm 27.7 27.0 12.1 38 9.1 ENE 7 13 4 7 1015.4 1014.8 0.0
29/02:00pm 27.2 25.4 12.0 38 8.8 N 13 19 7 10 1015.9 1015.3 0.0
29/01:30pm 26.7 24.5 12.0 40 8.5 NNW 15 20 8 11 1016.3 1015.7 0.0
29/01:00pm 26.5 23.6 12.2 41 8.3 N 19 24 10 13 1016.5 1016.0 0.0
29/12:30pm 25.7 22.5 11.8 42 8.0 N 20 33 11 18 1016.8 1016.3 0.0
29/12:00pm 25.1 21.0 11.6 42 7.7 N 24 35 13 19 1017.4 1016.9 0.0
29/11:30am 24.7 20.2 11.3 43 7.6 NNE 26 35 14 19 1017.9 1017.4 0.0
29/11:00am 24.3 19.7 10.9 43 7.5 NNE 26 32 14 17 1017.9 1017.4 0.0
29/10:30am 24.3 20.0 10.9 43 7.6 NNE 24 32 13 17 1018.4 1017.9 0.0
29/10:00am 23.4 18.2 10.1 43 7.3 NNE 28 37 15 20 1018.8 1018.3 0.0
29/09:30am 22.6 18.7 9.4 43 7.2 NNE 20 30 11 16 1018.9 1018.4 0.0
29/09:00am 21.5 17.5 9.1 45 6.7 NE 20 28 11 15 1019.0 1018.5 0.0
29/08:30am 21.2 17.3 8.8 45 6.6 NE 19 24 10 13 1019.4 1018.9 0.0
29/08:00am 20.7 16.8 8.7 46 6.4 NE 19 26 10 14 1019.3 1018.8 0.0
29/07:30am 20.2 16.3 8.5 47 6.2 NE 19 24 10 13 1019.0 1018.5 0.0
29/07:00am 20.1 16.2 8.8 48 6.0 NE 19 24 10 13 1018.9 1018.4 0.0
29/06:30am 20.4 16.6 9.0 48 6.1 NE 19 26 10 14 1018.7 1018.2 0.0
29/06:00am 20.6 16.8 9.2 48 6.1 NE 19 24 10 13 1018.6 1018.1 0.0
29/05:30am 20.6 17.6 9.2 48 6.1 NE 15 20 8 11 1018.7 1018.2 0.0
29/05:00am 20.7 17.3 9.0 47 6.2 NE 17 22 9 12 1018.5 1018.0 0.0
29/04:30am 21.2 17.8 9.1 46 6.5 NE 17 20 9 11 1018.3 1017.8 0.0
29/04:00am 21.4 18.0 9.3 46 6.5 NE 17 22 9 12 1018.6 1018.1 0.0
29/03:30am 21.3 18.0 9.5 47 6.4 NE 17 20 9 11 1018.4 1017.9 0.0
29/03:00am 20.5 17.6 9.7 50 5.8 NE 15 20 8 11 1018.5 1018.0 0.0
29/02:30am 20.3 17.4 9.8 51 5.7 NE 15 19 8 10 1018.9 1018.4 0.0
29/02:00am 20.0 17.6 9.9 52 5.5 NE 13 19 7 10 1019.3 1018.8 0.0
29/01:30am 20.1 17.7 9.9 52 5.5 NE 13 17 7 9 1019.7 1019.1 0.0
29/01:00am 20.4 18.0 10.2 52 5.5 NE 13 17 7 9 1019.9 1019.3 0.0
29/12:30am 20.6 18.7 10.4 52 5.6 NE 11 15 6 8 1019.9 1019.3 0.0
29/12:00am 20.6 18.6 10.1 51 5.7 NE 11 13 6 7 1020.0 1019.4 0.0
 
Date/Time
EST
Temp
°C
App
Temp
°C
Dew
Point
Rel
Hum
%
Delta-T
°C
Wind Press
QNH
hPa
Press
MSL
hPa
Rain
since 9 am
mm
Dir
 
Spd
km/h
Gust
km/h
Spd
kts
Gust
kts
28/11:30pm 21.4 19.1 10.3 49 6.1 NE 13 17 7 9 1020.0 1019.4 0.0
28/11:00pm 21.8 19.2 10.6 49 6.2 NE 15 20 8 11 1019.9 1019.3 0.0
28/10:30pm 21.7 19.4 10.5 49 6.2 ENE 13 17 7 9 1020.1 1019.5 0.0
28/10:00pm 20.8 19.1 10.0 50 5.9 ENE 9 11 5 6 1020.3 1019.7 0.0
28/09:30pm 20.3 18.4 8.9 48 6.1 ENE 9 13 5 7 1020.4 1019.8 0.0
28/09:00pm 19.3 17.3 7.1 45 6.2 NE 7 11 4 6 1020.5 1020.0 0.0
28/08:30pm 20.4 18.8 8.7 47 6.2 ENE 7 9 4 5 1020.1 1019.5 0.0
28/08:00pm 21.6 20.0 8.8 44 6.8 ENE 7 9 4 5 1020.0 1019.4 0.0
28/07:30pm 22.0 20.6 8.9 43 7.0 NE 6 9 3 5 1019.8 1019.2 0.0
28/07:00pm 23.4 21.9 9.0 40 7.8 NE 7 9 4 5 1019.6 1019.0 0.0
28/06:30pm 24.5 22.6 8.9 37 8.5 NE 9 11 5 6 1019.3 1018.8 0.0
28/06:00pm 25.6 23.3 9.0 35 9.1 NNE 11 13 6 7 1019.0 1018.5 0.0
28/05:30pm 26.8 24.0 8.7 32 9.9 NNE 13 15 7 8 1018.8 1018.3 0.0
28/05:00pm 27.3 23.9 9.2 32 10.0 NNE 17 20 9 11 1018.6 1018.1 0.0
28/04:30pm 27.8 24.1 8.1 29 10.8 NE 17 24 9 13 1018.6 1018.1 0.0
28/04:00pm 28.1 26.5 8.9 30 10.6 N 7 13 4 7 1018.7 1018.2 0.0
28/03:30pm 27.6 25.3 9.0 31 10.3 NNE 11 20 6 11 1019.1 1018.6 0.0
28/03:00pm 28.2 25.5 9.0 30 10.7 NNE 13 28 7 15 1019.0 1018.5 0.0
28/02:30pm 27.8 26.3 9.1 31 10.4 NE 7 19 4 10 1019.2 1018.7 0.0
28/02:00pm 28.0 26.2 9.3 31 10.4 NNW 9 17 5 9 1019.6 1019.0 0.0
28/01:30pm 27.1 24.2 9.5 33 9.8 NNE 15 26 8 14 1019.9 1019.3 0.0
28/01:00pm 26.8 24.2 9.2 33 9.7 NNE 13 22 7 12 1020.1 1019.5 0.0
28/12:30pm 27.2 23.9 9.5 33 9.9 NNE 17 24 9 13 1020.7 1020.2 0.0
28/12:00pm 26.6 23.4 9.9 35 9.3 NNE 17 24 9 13 1021.4 1020.9 0.0
28/11:30am 25.7 22.1 9.9 37 8.8 NNE 19 24 10 13 1021.9 1021.4 0.0
28/11:00am 24.5 20.6 9.6 39 8.2 NNE 20 28 11 15 1022.2 1021.7 0.0
28/10:30am 24.1 20.3 9.7 40 7.9 NNE 20 26 11 14 1022.4 1021.9 0.0

Other Formats:

Comma delimited format used in spreadsheet applications
http://www.bom.gov.au/fwo/IDN60801/IDN60801.94710.axf

JavaScript Object Notation format (JSON) in row-major order
http://www.bom.gov.au/fwo/IDN60801/IDN60801.94710.json